sensor_id;sensor_type;location;lat;lon;timestamp;temperature;humidity
10654;DHT22;5375;51.250;6.776;2023-07-09T00:01:59;25.00;55.50
10654;DHT22;5375;51.250;6.776;2023-07-09T00:06:51;25.00;55.50
10654;DHT22;5375;51.250;6.776;2023-07-09T00:09:18;25.00;55.50
10654;DHT22;5375;51.250;6.776;2023-07-09T00:11:45;25.00;55.50
10654;DHT22;5375;51.250;6.776;2023-07-09T00:14:13;25.00;55.50
10654;DHT22;5375;51.250;6.776;2023-07-09T00:16:40;25.00;55.50
10654;DHT22;5375;51.250;6.776;2023-07-09T00:19:16;25.00;55.50
10654;DHT22;5375;51.250;6.776;2023-07-09T00:21:43;25.00;55.50
10654;DHT22;5375;51.250;6.776;2023-07-09T00:24:11;25.00;55.50
10654;DHT22;5375;51.250;6.776;2023-07-09T00:26:38;25.00;55.50
10654;DHT22;5375;51.250;6.776;2023-07-09T00:29:10;25.00;55.50
10654;DHT22;5375;51.250;6.776;2023-07-09T00:31:37;25.00;55.50
10654;DHT22;5375;51.250;6.776;2023-07-09T00:34:13;25.00;55.50
10654;DHT22;5375;51.250;6.776;2023-07-09T00:36:39;25.00;55.50
10654;DHT22;5375;51.250;6.776;2023-07-09T00:41:34;25.00;55.50
10654;DHT22;5375;51.250;6.776;2023-07-09T00:49:27;25.00;55.50
10654;DHT22;5375;51.250;6.776;2023-07-09T00:51:55;25.00;55.50
10654;DHT22;5375;51.250;6.776;2023-07-09T00:54:29;25.00;55.50
10654;DHT22;5375;51.250;6.776;2023-07-09T00:57:03;24.90;55.50
10654;DHT22;5375;51.250;6.776;2023-07-09T00:59:31;24.90;55.50
10654;DHT22;5375;51.250;6.776;2023-07-09T01:04:26;24.90;55.50
10654;DHT22;5375;51.250;6.776;2023-07-09T01:06:54;24.90;55.50
10654;DHT22;5375;51.250;6.776;2023-07-09T01:09:21;25.00;55.60
10654;DHT22;5375;51.250;6.776;2023-07-09T01:14:17;24.90;55.50
10654;DHT22;5375;51.250;6.776;2023-07-09T01:16:46;24.90;55.60
10654;DHT22;5375;51.250;6.776;2023-07-09T01:24:16;25.00;55.70
10654;DHT22;5375;51.250;6.776;2023-07-09T01:27:02;24.90;55.70
10654;DHT22;5375;51.250;6.776;2023-07-09T01:29:31;24.90;55.70
10654;DHT22;5375;51.250;6.776;2023-07-09T01:34:25;24.90;55.70
10654;DHT22;5375;51.250;6.776;2023-07-09T01:41:44;24.90;55.70
10654;DHT22;5375;51.250;6.776;2023-07-09T01:44:13;24.90;55.70
10654;DHT22;5375;51.250;6.776;2023-07-09T01:46:39;25.00;55.70
10654;DHT22;5375;51.250;6.776;2023-07-09T01:51:33;25.00;55.70
10654;DHT22;5375;51.250;6.776;2023-07-09T01:58:51;24.90;55.70
10654;DHT22;5375;51.250;6.776;2023-07-09T02:01:17;25.00;55.70
10654;DHT22;5375;51.250;6.776;2023-07-09T02:03:45;25.00;55.70
10654;DHT22;5375;51.250;6.776;2023-07-09T02:06:11;24.90;55.70
10654;DHT22;5375;51.250;6.776;2023-07-09T02:11:04;24.90;55.70
10654;DHT22;5375;51.250;6.776;2023-07-09T02:15:56;24.90;55.70
10654;DHT22;5375;51.250;6.776;2023-07-09T02:25:40;24.90;55.80
10654;DHT22;5375;51.250;6.776;2023-07-09T02:28:05;24.90;55.80
10654;DHT22;5375;51.250;6.776;2023-07-09T02:32:57;24.90;55.80
10654;DHT22;5375;51.250;6.776;2023-07-09T02:40:15;24.90;55.90
10654;DHT22;5375;51.250;6.776;2023-07-09T02:42:41;24.90;55.90
10654;DHT22;5375;51.250;6.776;2023-07-09T02:45:08;24.90;56.10
10654;DHT22;5375;51.250;6.776;2023-07-09T02:47:33;25.00;56.00
10654;DHT22;5375;51.250;6.776;2023-07-09T02:52:25;24.90;56.00
10654;DHT22;5375;51.250;6.776;2023-07-09T02:54:52;24.90;56.00
10654;DHT22;5375;51.250;6.776;2023-07-09T02:57:18;24.90;56.00
10654;DHT22;5375;51.250;6.776;2023-07-09T03:02:10;24.90;56.00
10654;DHT22;5375;51.250;6.776;2023-07-09T03:04:36;24.90;56.00
10654;DHT22;5375;51.250;6.776;2023-07-09T03:09:28;24.90;56.00
10654;DHT22;5375;51.250;6.776;2023-07-09T03:19:12;24.90;56.00
10654;DHT22;5375;51.250;6.776;2023-07-09T03:21:38;24.90;56.00
10654;DHT22;5375;51.250;6.776;2023-07-09T03:24:04;24.90;56.10
10654;DHT22;5375;51.250;6.776;2023-07-09T03:26:30;24.90;56.10
10654;DHT22;5375;51.250;6.776;2023-07-09T03:31:22;24.90;56.10
10654;DHT22;5375;51.250;6.776;2023-07-09T03:38:40;24.90;56.10
10654;DHT22;5375;51.250;6.776;2023-07-09T03:43:32;24.90;56.00
10654;DHT22;5375;51.250;6.776;2023-07-09T03:53:16;24.90;56.10
10654;DHT22;5375;51.250;6.776;2023-07-09T03:55:43;24.90;56.00
10654;DHT22;5375;51.250;6.776;2023-07-09T03:58:08;24.90;56.10
10654;DHT22;5375;51.250;6.776;2023-07-09T04:00:34;24.90;56.00
10654;DHT22;5375;51.250;6.776;2023-07-09T04:03:00;24.90;56.00
10654;DHT22;5375;51.250;6.776;2023-07-09T04:05:26;24.90;56.00
10654;DHT22;5375;51.250;6.776;2023-07-09T04:07:53;24.90;56.00
10654;DHT22;5375;51.250;6.776;2023-07-09T04:10:19;24.90;55.90
10654;DHT22;5375;51.250;6.776;2023-07-09T04:12:45;24.90;55.90
10654;DHT22;5375;51.250;6.776;2023-07-09T04:17:39;25.00;55.90
10654;DHT22;5375;51.250;6.776;2023-07-09T04:20:05;25.00;56.00
10654;DHT22;5375;51.250;6.776;2023-07-09T04:22:31;25.00;56.00
10654;DHT22;5375;51.250;6.776;2023-07-09T04:24:57;25.00;56.10
10654;DHT22;5375;51.250;6.776;2023-07-09T04:29:52;24.90;56.10
10654;DHT22;5375;51.250;6.776;2023-07-09T04:37:11;24.90;56.30
10654;DHT22;5375;51.250;6.776;2023-07-09T04:42:04;24.90;56.30
10654;DHT22;5375;51.250;6.776;2023-07-09T04:44:30;24.90;56.40
10654;DHT22;5375;51.250;6.776;2023-07-09T04:54:14;24.80;56.70
10654;DHT22;5375;51.250;6.776;2023-07-09T05:06:28;24.80;57.30
10654;DHT22;5375;51.250;6.776;2023-07-09T05:11:20;24.80;57.50
10654;DHT22;5375;51.250;6.776;2023-07-09T05:18:38;24.80;57.90
10654;DHT22;5375;51.250;6.776;2023-07-09T05:26:00;24.80;58.10
10654;DHT22;5375;51.250;6.776;2023-07-09T05:28:27;24.80;58.10
10654;DHT22;5375;51.250;6.776;2023-07-09T05:30:52;24.80;58.00
10654;DHT22;5375;51.250;6.776;2023-07-09T05:40:37;24.90;58.20
10654;DHT22;5375;51.250;6.776;2023-07-09T05:45:28;24.90;58.40
10654;DHT22;5375;51.250;6.776;2023-07-09T05:47:54;24.90;58.40
10654;DHT22;5375;51.250;6.776;2023-07-09T05:57:38;24.90;58.20
10654;DHT22;5375;51.250;6.776;2023-07-09T06:00:05;24.90;58.20
10654;DHT22;5375;51.250;6.776;2023-07-09T06:04:57;24.90;58.00
10654;DHT22;5375;51.250;6.776;2023-07-09T06:07:23;24.90;57.90
10654;DHT22;5375;51.250;6.776;2023-07-09T06:14:42;24.90;57.90
10654;DHT22;5375;51.250;6.776;2023-07-09T06:22:00;24.90;57.90
10654;DHT22;5375;51.250;6.776;2023-07-09T06:34:09;24.90;57.90
10654;DHT22;5375;51.250;6.776;2023-07-09T06:39:01;24.90;57.90
10654;DHT22;5375;51.250;6.776;2023-07-09T06:41:27;25.00;57.90
10654;DHT22;5375;51.250;6.776;2023-07-09T06:48:45;24.90;57.70
10654;DHT22;5375;51.250;6.776;2023-07-09T06:56:05;25.00;57.50
10654;DHT22;5375;51.250;6.776;2023-07-09T06:58:32;25.00;57.50
10654;DHT22;5375;51.250;6.776;2023-07-09T07:01:01;25.00;57.50
10654;DHT22;5375;51.250;6.776;2023-07-09T07:05:55;25.00;57.50
10654;DHT22;5375;51.250;6.776;2023-07-09T07:08:22;25.00;57.50
10654;DHT22;5375;51.250;6.776;2023-07-09T07:10:49;24.90;57.30
10654;DHT22;5375;51.250;6.776;2023-07-09T07:13:15;25.00;57.30
10654;DHT22;5375;51.250;6.776;2023-07-09T07:18:08;25.00;57.20
10654;DHT22;5375;51.250;6.776;2023-07-09T07:20:34;27.30;58.70
10654;DHT22;5375;51.250;6.776;2023-07-09T07:23:00;25.00;57.20
10654;DHT22;5375;51.250;6.776;2023-07-09T07:30:18;25.00;57.10
10654;DHT22;5375;51.250;6.776;2023-07-09T07:32:46;25.00;57.10
10654;DHT22;5375;51.250;6.776;2023-07-09T07:35:12;25.00;57.20
10654;DHT22;5375;51.250;6.776;2023-07-09T07:40:05;25.00;57.10
10654;DHT22;5375;51.250;6.776;2023-07-09T07:42:31;25.00;57.10
10654;DHT22;5375;51.250;6.776;2023-07-09T07:52:14;25.00;57.10
10654;DHT22;5375;51.250;6.776;2023-07-09T07:54:40;25.00;57.10
10654;DHT22;5375;51.250;6.776;2023-07-09T07:57:06;25.00;57.10
10654;DHT22;5375;51.250;6.776;2023-07-09T07:59:35;25.00;57.00
10654;DHT22;5375;51.250;6.776;2023-07-09T08:02:01;25.00;57.00
10654;DHT22;5375;51.250;6.776;2023-07-09T08:19:04;25.00;56.90
10654;DHT22;5375;51.250;6.776;2023-07-09T08:23:56;25.00;56.80
10654;DHT22;5375;51.250;6.776;2023-07-09T08:28:50;25.00;56.80
10654;DHT22;5375;51.250;6.776;2023-07-09T08:31:16;25.00;56.80
10654;DHT22;5375;51.250;6.776;2023-07-09T08:36:08;25.00;56.70
10654;DHT22;5375;51.250;6.776;2023-07-09T08:38:33;25.00;56.70
10654;DHT22;5375;51.250;6.776;2023-07-09T08:41:00;25.20;56.90
10654;DHT22;5375;51.250;6.776;2023-07-09T08:43:30;25.00;56.70
10654;DHT22;5375;51.250;6.776;2023-07-09T08:48:34;25.00;56.70
10654;DHT22;5375;51.250;6.776;2023-07-09T08:51:07;25.00;56.60
10654;DHT22;5375;51.250;6.776;2023-07-09T08:53:42;25.00;56.60
10654;DHT22;5375;51.250;6.776;2023-07-09T08:58:36;25.00;56.60
10654;DHT22;5375;51.250;6.776;2023-07-09T09:01:06;25.00;56.60
10654;DHT22;5375;51.250;6.776;2023-07-09T09:03:51;25.00;56.60
10654;DHT22;5375;51.250;6.776;2023-07-09T09:06:21;25.00;56.50
10654;DHT22;5375;51.250;6.776;2023-07-09T09:09:19;25.00;56.50
10654;DHT22;5375;51.250;6.776;2023-07-09T09:14:37;25.00;56.50
10654;DHT22;5375;51.250;6.776;2023-07-09T09:17:11;25.00;56.40
10654;DHT22;5375;51.250;6.776;2023-07-09T09:19:52;25.10;56.50
10654;DHT22;5375;51.250;6.776;2023-07-09T09:22:24;25.10;56.50
10654;DHT22;5375;51.250;6.776;2023-07-09T09:25:22;25.20;56.60
10654;DHT22;5375;51.250;6.776;2023-07-09T09:27:48;25.20;56.40
10654;DHT22;5375;51.250;6.776;2023-07-09T09:30:16;25.20;56.40
10654;DHT22;5375;51.250;6.776;2023-07-09T09:32:51;25.20;56.30
10654;DHT22;5375;51.250;6.776;2023-07-09T09:35:19;25.30;56.30
10654;DHT22;5375;51.250;6.776;2023-07-09T09:37:54;25.30;56.20
10654;DHT22;5375;51.250;6.776;2023-07-09T09:40:21;25.40;56.20
10654;DHT22;5375;51.250;6.776;2023-07-09T09:42:51;25.40;56.20
10654;DHT22;5375;51.250;6.776;2023-07-09T09:45:20;25.40;56.10
10654;DHT22;5375;51.250;6.776;2023-07-09T09:47:48;25.40;56.10
10654;DHT22;5375;51.250;6.776;2023-07-09T09:50:19;25.40;56.00
10654;DHT22;5375;51.250;6.776;2023-07-09T09:52:48;25.40;56.00
10654;DHT22;5375;51.250;6.776;2023-07-09T09:57:48;25.50;56.00
10654;DHT22;5375;51.250;6.776;2023-07-09T10:00:15;25.50;55.90
10654;DHT22;5375;51.250;6.776;2023-07-09T10:02:42;25.50;55.90
10654;DHT22;5375;51.250;6.776;2023-07-09T10:05:13;25.50;55.80
10654;DHT22;5375;51.250;6.776;2023-07-09T10:07:44;25.50;55.80
10654;DHT22;5375;51.250;6.776;2023-07-09T10:10:19;25.50;55.80
10654;DHT22;5375;51.250;6.776;2023-07-09T10:13:00;25.50;55.80
10654;DHT22;5375;51.250;6.776;2023-07-09T10:15:44;25.50;55.80
10654;DHT22;5375;51.250;6.776;2023-07-09T10:18:32;25.50;55.70
10654;DHT22;5375;51.250;6.776;2023-07-09T10:26:36;25.50;55.70
10654;DHT22;5375;51.250;6.776;2023-07-09T10:29:30;25.50;55.70
10654;DHT22;5375;51.250;6.776;2023-07-09T10:32:29;25.50;55.70
10654;DHT22;5375;51.250;6.776;2023-07-09T10:38:00;25.50;55.70
10654;DHT22;5375;51.250;6.776;2023-07-09T10:40:33;25.50;55.70
10654;DHT22;5375;51.250;6.776;2023-07-09T10:43:03;25.60;55.70
10654;DHT22;5375;51.250;6.776;2023-07-09T10:45:38;25.50;55.70
10654;DHT22;5375;51.250;6.776;2023-07-09T10:48:12;25.60;55.70
10654;DHT22;5375;51.250;6.776;2023-07-09T10:50:46;25.60;55.80
10654;DHT22;5375;51.250;6.776;2023-07-09T10:53:39;25.60;55.80
10654;DHT22;5375;51.250;6.776;2023-07-09T10:56:17;25.60;55.70
10654;DHT22;5375;51.250;6.776;2023-07-09T10:58:58;25.60;55.70
10654;DHT22;5375;51.250;6.776;2023-07-09T11:01:33;25.60;55.70
10654;DHT22;5375;51.250;6.776;2023-07-09T11:04:05;25.60;55.70
10654;DHT22;5375;51.250;6.776;2023-07-09T11:06:37;25.70;55.70
10654;DHT22;5375;51.250;6.776;2023-07-09T11:09:26;25.70;55.70
10654;DHT22;5375;51.250;6.776;2023-07-09T11:11:57;25.70;55.70
10654;DHT22;5375;51.250;6.776;2023-07-09T11:14:33;25.70;55.60
10654;DHT22;5375;51.250;6.776;2023-07-09T11:16:59;25.70;55.60
10654;DHT22;5375;51.250;6.776;2023-07-09T11:19:26;25.70;55.60
10654;DHT22;5375;51.250;6.776;2023-07-09T11:24:43;25.70;55.60
10654;DHT22;5375;51.250;6.776;2023-07-09T11:27:48;25.70;55.60
10654;DHT22;5375;51.250;6.776;2023-07-09T11:30:23;25.70;55.60
10654;DHT22;5375;51.250;6.776;2023-07-09T11:33:02;25.60;55.50
10654;DHT22;5375;51.250;6.776;2023-07-09T11:35:44;25.70;55.60
10654;DHT22;5375;51.250;6.776;2023-07-09T11:38:23;25.60;55.60
10654;DHT22;5375;51.250;6.776;2023-07-09T11:40:51;25.60;55.60
10654;DHT22;5375;51.250;6.776;2023-07-09T11:43:35;25.70;55.70
10654;DHT22;5375;51.250;6.776;2023-07-09T11:46:22;25.70;55.70
10654;DHT22;5375;51.250;6.776;2023-07-09T11:48:49;25.70;55.70
10654;DHT22;5375;51.250;6.776;2023-07-09T11:51:23;25.70;55.70
10654;DHT22;5375;51.250;6.776;2023-07-09T11:53:53;25.70;55.70
10654;DHT22;5375;51.250;6.776;2023-07-09T11:56:20;25.70;55.70
10654;DHT22;5375;51.250;6.776;2023-07-09T11:58:50;25.70;55.70
10654;DHT22;5375;51.250;6.776;2023-07-09T12:01:19;25.70;55.70
10654;DHT22;5375;51.250;6.776;2023-07-09T12:03:47;25.70;55.70
10654;DHT22;5375;51.250;6.776;2023-07-09T12:06:37;25.70;55.70
10654;DHT22;5375;51.250;6.776;2023-07-09T12:11:33;25.70;55.80
10654;DHT22;5375;51.250;6.776;2023-07-09T12:14:10;25.80;55.80
10654;DHT22;5375;51.250;6.776;2023-07-09T12:16:40;25.70;55.80
10654;DHT22;5375;51.250;6.776;2023-07-09T12:19:06;25.80;55.80
10654;DHT22;5375;51.250;6.776;2023-07-09T12:21:38;25.80;55.80
10654;DHT22;5375;51.250;6.776;2023-07-09T12:24:21;25.80;55.80
10654;DHT22;5375;51.250;6.776;2023-07-09T12:26:58;25.80;55.80
10654;DHT22;5375;51.250;6.776;2023-07-09T12:29:34;25.80;55.90
10654;DHT22;5375;51.250;6.776;2023-07-09T12:32:11;25.80;55.90
10654;DHT22;5375;51.250;6.776;2023-07-09T12:34:37;25.80;55.80
10654;DHT22;5375;51.250;6.776;2023-07-09T12:39:29;25.80;55.80
10654;DHT22;5375;51.250;6.776;2023-07-09T12:42:00;25.80;55.80
10654;DHT22;5375;51.250;6.776;2023-07-09T12:44:26;25.80;55.80
10654;DHT22;5375;51.250;6.776;2023-07-09T12:46:54;25.90;55.90
10654;DHT22;5375;51.250;6.776;2023-07-09T12:49:30;25.90;55.90
10654;DHT22;5375;51.250;6.776;2023-07-09T12:51:58;25.90;55.90
10654;DHT22;5375;51.250;6.776;2023-07-09T12:54:28;25.90;55.90
10654;DHT22;5375;51.250;6.776;2023-07-09T12:56:54;25.90;56.00
10654;DHT22;5375;51.250;6.776;2023-07-09T12:59:22;25.90;56.00
10654;DHT22;5375;51.250;6.776;2023-07-09T13:02:01;25.90;56.00
10654;DHT22;5375;51.250;6.776;2023-07-09T13:06:54;25.90;56.00
10654;DHT22;5375;51.250;6.776;2023-07-09T13:09:25;26.00;56.10
10654;DHT22;5375;51.250;6.776;2023-07-09T13:14:22;26.00;56.10
10654;DHT22;5375;51.250;6.776;2023-07-09T13:19:16;26.00;56.10
10654;DHT22;5375;51.250;6.776;2023-07-09T13:24:19;26.00;56.00
10654;DHT22;5375;51.250;6.776;2023-07-09T13:26:45;26.00;56.10
10654;DHT22;5375;51.250;6.776;2023-07-09T13:29:14;26.10;56.10
10654;DHT22;5375;51.250;6.776;2023-07-09T13:31:41;26.10;56.10
10654;DHT22;5375;51.250;6.776;2023-07-09T13:34:18;26.10;56.10
10654;DHT22;5375;51.250;6.776;2023-07-09T13:39:11;26.10;56.10
10654;DHT22;5375;51.250;6.776;2023-07-09T13:41:38;26.10;56.20
10654;DHT22;5375;51.250;6.776;2023-07-09T13:44:12;26.00;56.10
10654;DHT22;5375;51.250;6.776;2023-07-09T13:46:38;26.10;56.10
10654;DHT22;5375;51.250;6.776;2023-07-09T13:49:08;26.10;56.10
10654;DHT22;5375;51.250;6.776;2023-07-09T13:51:34;26.10;56.10
10654;DHT22;5375;51.250;6.776;2023-07-09T13:53:59;26.10;56.10
10654;DHT22;5375;51.250;6.776;2023-07-09T13:56:28;26.10;56.10
10654;DHT22;5375;51.250;6.776;2023-07-09T13:58:53;26.10;56.10
10654;DHT22;5375;51.250;6.776;2023-07-09T14:01:22;26.10;56.00
10654;DHT22;5375;51.250;6.776;2023-07-09T14:03:48;26.10;56.10
10654;DHT22;5375;51.250;6.776;2023-07-09T14:06:16;26.10;56.10
10654;DHT22;5375;51.250;6.776;2023-07-09T14:11:13;26.10;56.10
10654;DHT22;5375;51.250;6.776;2023-07-09T14:16:08;26.10;56.10
10654;DHT22;5375;51.250;6.776;2023-07-09T14:18:34;26.10;56.10
10654;DHT22;5375;51.250;6.776;2023-07-09T14:21:00;26.10;56.00
10654;DHT22;5375;51.250;6.776;2023-07-09T14:23:28;26.10;56.10
10654;DHT22;5375;51.250;6.776;2023-07-09T14:30:49;26.10;56.20
10654;DHT22;5375;51.250;6.776;2023-07-09T14:33:18;26.20;56.30
10654;DHT22;5375;51.250;6.776;2023-07-09T14:35:44;26.20;56.30
10654;DHT22;5375;51.250;6.776;2023-07-09T14:38:22;26.20;56.30
10654;DHT22;5375;51.250;6.776;2023-07-09T14:40:51;26.20;56.40
10654;DHT22;5375;51.250;6.776;2023-07-09T14:43:17;26.20;56.50
10654;DHT22;5375;51.250;6.776;2023-07-09T14:45:44;26.20;56.60
10654;DHT22;5375;51.250;6.776;2023-07-09T14:48:20;26.20;56.60
10654;DHT22;5375;51.250;6.776;2023-07-09T14:50:46;26.20;56.70
10654;DHT22;5375;51.250;6.776;2023-07-09T14:53:21;26.20;56.60
10654;DHT22;5375;51.250;6.776;2023-07-09T14:55:47;26.20;56.60
10654;DHT22;5375;51.250;6.776;2023-07-09T14:58:18;26.20;56.60
10654;DHT22;5375;51.250;6.776;2023-07-09T15:00:44;26.20;56.60
10654;DHT22;5375;51.250;6.776;2023-07-09T15:03:18;26.20;56.60
10654;DHT22;5375;51.250;6.776;2023-07-09T15:05:44;26.20;56.60
10654;DHT22;5375;51.250;6.776;2023-07-09T15:08:16;26.20;56.60
10654;DHT22;5375;51.250;6.776;2023-07-09T15:10:42;26.20;56.60
10654;DHT22;5375;51.250;6.776;2023-07-09T15:13:30;26.20;56.60
10654;DHT22;5375;51.250;6.776;2023-07-09T15:18:23;26.20;56.60
10654;DHT22;5375;51.250;6.776;2023-07-09T15:20:55;26.20;56.60
10654;DHT22;5375;51.250;6.776;2023-07-09T15:23:22;26.20;56.70
10654;DHT22;5375;51.250;6.776;2023-07-09T15:25:48;26.20;56.70
10654;DHT22;5375;51.250;6.776;2023-07-09T15:28:14;26.20;56.70
10654;DHT22;5375;51.250;6.776;2023-07-09T15:30:40;26.20;56.70
10654;DHT22;5375;51.250;6.776;2023-07-09T15:33:13;26.20;56.60
10654;DHT22;5375;51.250;6.776;2023-07-09T15:35:41;26.20;56.60
10654;DHT22;5375;51.250;6.776;2023-07-09T15:38:25;26.20;56.60
10654;DHT22;5375;51.250;6.776;2023-07-09T15:40:51;26.20;56.60
10654;DHT22;5375;51.250;6.776;2023-07-09T15:45:48;26.20;56.40
10654;DHT22;5375;51.250;6.776;2023-07-09T15:48:35;26.20;56.40
10654;DHT22;5375;51.250;6.776;2023-07-09T15:51:02;26.20;56.40
10654;DHT22;5375;51.250;6.776;2023-07-09T15:53:28;26.20;56.40
10654;DHT22;5375;51.250;6.776;2023-07-09T15:56:00;26.20;56.40
10654;DHT22;5375;51.250;6.776;2023-07-09T15:58:41;26.20;56.30
10654;DHT22;5375;51.250;6.776;2023-07-09T16:01:11;26.20;56.40
10654;DHT22;5375;51.250;6.776;2023-07-09T16:03:37;26.20;56.40
10654;DHT22;5375;51.250;6.776;2023-07-09T16:13:23;26.20;56.30
10654;DHT22;5375;51.250;6.776;2023-07-09T16:15:49;26.10;56.20
10654;DHT22;5375;51.250;6.776;2023-07-09T16:18:16;26.20;56.30
10654;DHT22;5375;51.250;6.776;2023-07-09T16:20:42;26.20;56.30
10654;DHT22;5375;51.250;6.776;2023-07-09T16:23:15;26.10;56.20
10654;DHT22;5375;51.250;6.776;2023-07-09T16:28:13;26.10;56.20
10654;DHT22;5375;51.250;6.776;2023-07-09T16:33:04;26.10;56.20
10654;DHT22;5375;51.250;6.776;2023-07-09T16:40:26;26.10;56.40
10654;DHT22;5375;51.250;6.776;2023-07-09T16:42:53;26.10;56.50
10654;DHT22;5375;51.250;6.776;2023-07-09T16:45:20;26.10;56.50
10654;DHT22;5375;51.250;6.776;2023-07-09T16:50:23;26.10;56.70
10654;DHT22;5375;51.250;6.776;2023-07-09T16:52:50;26.10;56.70
10654;DHT22;5375;51.250;6.776;2023-07-09T16:55:24;26.10;56.80
10654;DHT22;5375;51.250;6.776;2023-07-09T16:57:56;26.10;56.90
10654;DHT22;5375;51.250;6.776;2023-07-09T17:00:28;26.10;56.90
10654;DHT22;5375;51.250;6.776;2023-07-09T17:02:55;26.10;57.00
10654;DHT22;5375;51.250;6.776;2023-07-09T17:05:23;26.10;57.10
10654;DHT22;5375;51.250;6.776;2023-07-09T17:12:41;26.10;57.30
10654;DHT22;5375;51.250;6.776;2023-07-09T17:15:29;26.10;57.40
10654;DHT22;5375;51.250;6.776;2023-07-09T17:17:59;26.10;57.50
10654;DHT22;5375;51.250;6.776;2023-07-09T17:20:30;26.10;57.60
10654;DHT22;5375;51.250;6.776;2023-07-09T17:22:57;26.10;57.60
10654;DHT22;5375;51.250;6.776;2023-07-09T17:25:32;26.10;57.60
10654;DHT22;5375;51.250;6.776;2023-07-09T17:27:59;26.10;57.70
10654;DHT22;5375;51.250;6.776;2023-07-09T17:30:26;26.10;57.80
10654;DHT22;5375;51.250;6.776;2023-07-09T17:37:50;26.10;58.00
10654;DHT22;5375;51.250;6.776;2023-07-09T17:40:24;26.10;58.20
10654;DHT22;5375;51.250;6.776;2023-07-09T17:50:16;26.10;58.20
10654;DHT22;5375;51.250;6.776;2023-07-09T17:55:12;26.10;58.40
10654;DHT22;5375;51.250;6.776;2023-07-09T17:57:38;26.10;58.50
10654;DHT22;5375;51.250;6.776;2023-07-09T18:00:04;26.20;58.60
10654;DHT22;5375;51.250;6.776;2023-07-09T18:02:32;26.10;58.60
10654;DHT22;5375;51.250;6.776;2023-07-09T18:05:00;26.10;58.60
10654;DHT22;5375;51.250;6.776;2023-07-09T18:07:30;26.10;58.60
10654;DHT22;5375;51.250;6.776;2023-07-09T18:09:57;26.10;58.60
10654;DHT22;5375;51.250;6.776;2023-07-09T18:12:25;26.10;58.80
10654;DHT22;5375;51.250;6.776;2023-07-09T18:14:54;26.10;59.20
10654;DHT22;5375;51.250;6.776;2023-07-09T18:17:22;26.20;59.40
10654;DHT22;5375;51.250;6.776;2023-07-09T18:19:50;26.20;59.50
10654;DHT22;5375;51.250;6.776;2023-07-09T18:22:20;26.20;59.60
10654;DHT22;5375;51.250;6.776;2023-07-09T18:24:47;26.20;59.70
10654;DHT22;5375;51.250;6.776;2023-07-09T18:27:29;26.20;59.70
10654;DHT22;5375;51.250;6.776;2023-07-09T18:29:55;26.20;59.70
10654;DHT22;5375;51.250;6.776;2023-07-09T18:32:23;26.20;59.70
10654;DHT22;5375;51.250;6.776;2023-07-09T18:35:01;26.20;59.70
10654;DHT22;5375;51.250;6.776;2023-07-09T18:44:50;26.20;59.80
10654;DHT22;5375;51.250;6.776;2023-07-09T18:47:18;26.20;59.80
10654;DHT22;5375;51.250;6.776;2023-07-09T18:49:45;26.10;59.80
10654;DHT22;5375;51.250;6.776;2023-07-09T18:52:13;26.20;59.80
10654;DHT22;5375;51.250;6.776;2023-07-09T19:02:01;26.20;60.10
10654;DHT22;5375;51.250;6.776;2023-07-09T19:04:28;26.20;60.10
10654;DHT22;5375;51.250;6.776;2023-07-09T19:06:55;26.20;60.20
10654;DHT22;5375;51.250;6.776;2023-07-09T19:09:23;26.20;60.10
10654;DHT22;5375;51.250;6.776;2023-07-09T19:11:50;26.20;60.20
10654;DHT22;5375;51.250;6.776;2023-07-09T19:16:54;26.20;60.30
10654;DHT22;5375;51.250;6.776;2023-07-09T19:19:24;26.20;60.40
10654;DHT22;5375;51.250;6.776;2023-07-09T19:21:51;26.20;60.50
10654;DHT22;5375;51.250;6.776;2023-07-09T19:26:47;26.20;60.60
10654;DHT22;5375;51.250;6.776;2023-07-09T19:29:14;26.20;60.70
10654;DHT22;5375;51.250;6.776;2023-07-09T19:31:41;26.20;60.80
10654;DHT22;5375;51.250;6.776;2023-07-09T19:34:25;26.20;60.80
10654;DHT22;5375;51.250;6.776;2023-07-09T19:36:56;26.20;60.90
10654;DHT22;5375;51.250;6.776;2023-07-09T19:39:26;26.20;61.00
10654;DHT22;5375;51.250;6.776;2023-07-09T19:41:53;26.20;61.10
10654;DHT22;5375;51.250;6.776;2023-07-09T19:44:21;26.20;61.10
10654;DHT22;5375;51.250;6.776;2023-07-09T19:51:40;26.20;61.20
10654;DHT22;5375;51.250;6.776;2023-07-09T19:54:16;26.20;61.20
10654;DHT22;5375;51.250;6.776;2023-07-09T19:56:43;26.20;61.20
10654;DHT22;5375;51.250;6.776;2023-07-09T20:01:35;26.20;61.40
10654;DHT22;5375;51.250;6.776;2023-07-09T20:06:28;26.20;61.40
10654;DHT22;5375;51.250;6.776;2023-07-09T20:08:54;26.20;61.40
10654;DHT22;5375;51.250;6.776;2023-07-09T20:16:25;26.20;61.50
10654;DHT22;5375;51.250;6.776;2023-07-09T20:18:53;26.20;61.50
10654;DHT22;5375;51.250;6.776;2023-07-09T20:21:21;26.20;61.50
10654;DHT22;5375;51.250;6.776;2023-07-09T20:23:47;26.20;61.50
10654;DHT22;5375;51.250;6.776;2023-07-09T20:31:25;26.20;61.40
10654;DHT22;5375;51.250;6.776;2023-07-09T20:34:10;26.20;61.40
10654;DHT22;5375;51.250;6.776;2023-07-09T20:36:36;26.20;61.50
10654;DHT22;5375;51.250;6.776;2023-07-09T20:39:07;26.20;61.50
10654;DHT22;5375;51.250;6.776;2023-07-09T20:41:32;26.20;61.50
10654;DHT22;5375;51.250;6.776;2023-07-09T20:48:50;26.20;61.40
10654;DHT22;5375;51.250;6.776;2023-07-09T20:56:12;26.20;61.20
10654;DHT22;5375;51.250;6.776;2023-07-09T20:58:39;26.20;61.40
10654;DHT22;5375;51.250;6.776;2023-07-09T21:08:27;26.20;61.20
10654;DHT22;5375;51.250;6.776;2023-07-09T21:10:52;26.20;61.20
10654;DHT22;5375;51.250;6.776;2023-07-09T21:13:20;26.20;61.20
10654;DHT22;5375;51.250;6.776;2023-07-09T21:16:15;26.20;61.20
10654;DHT22;5375;51.250;6.776;2023-07-09T21:21:09;26.20;61.20
10654;DHT22;5375;51.250;6.776;2023-07-09T21:26:00;26.20;61.20
10654;DHT22;5375;51.250;6.776;2023-07-09T21:33:23;26.20;61.30
10654;DHT22;5375;51.250;6.776;2023-07-09T21:35:51;26.20;61.30
10654;DHT22;5375;51.250;6.776;2023-07-09T21:38:22;26.20;61.40
10654;DHT22;5375;51.250;6.776;2023-07-09T21:40:52;26.20;61.40
10654;DHT22;5375;51.250;6.776;2023-07-09T21:45:46;26.10;61.30
10654;DHT22;5375;51.250;6.776;2023-07-09T21:50:39;26.20;61.40
10654;DHT22;5375;51.250;6.776;2023-07-09T21:53:17;26.20;61.40
10654;DHT22;5375;51.250;6.776;2023-07-09T22:00:35;26.20;61.50
10654;DHT22;5375;51.250;6.776;2023-07-09T22:07:55;26.20;61.50
10654;DHT22;5375;51.250;6.776;2023-07-09T22:10:31;26.20;61.50
10654;DHT22;5375;51.250;6.776;2023-07-09T22:12:59;26.20;61.60
10654;DHT22;5375;51.250;6.776;2023-07-09T22:15:30;26.20;61.60
10654;DHT22;5375;51.250;6.776;2023-07-09T22:17:56;26.10;61.50
10654;DHT22;5375;51.250;6.776;2023-07-09T22:20:24;26.20;61.50
10654;DHT22;5375;51.250;6.776;2023-07-09T22:25:19;26.10;61.50
10654;DHT22;5375;51.250;6.776;2023-07-09T22:27:46;26.10;61.50
10654;DHT22;5375;51.250;6.776;2023-07-09T22:30:13;26.10;61.60
10654;DHT22;5375;51.250;6.776;2023-07-09T22:32:39;26.20;61.60
10654;DHT22;5375;51.250;6.776;2023-07-09T22:35:12;26.20;61.70
10654;DHT22;5375;51.250;6.776;2023-07-09T22:37:39;26.10;61.60